Wetterstation Vordersexau
Wetterdaten: Woche 14.10.13 - 20.10.13 (KW42)
Datum Zeit Temp. A. Feuchte A. Luftdruck Regen Wind Richtung Taupunkt Windchill Windben
14.10.2013 00:00 8,4 C 83 % 1016,2 hPa 1,0 l/m 0,0 km/h SO 5,7 C 8,4 C 0,0 km/h
14.10.2013 01:00 8,6 C 81 % 1016,2 hPa 0,0 l/m 0,0 km/h O-SO 5,5 C 8,6 C 0,0 km/h
14.10.2013 02:00 9,3 C 80 % 1016,1 hPa 0,5 l/m 0,0 km/h S-SO 6,0 C 9,3 C 0,0 km/h
14.10.2013 03:00 9,4 C 79 % 1015,6 hPa 0,5 l/m 0,0 km/h NO 5,9 C 9,4 C 0,0 km/h
14.10.2013 04:00 9,9 C 77 % 1015,2 hPa 0,0 l/m 0,0 km/h S-SW 6,1 C 9,9 C 0,0 km/h
14.10.2013 05:00 11,9 C 81 % 1014,9 hPa 0,0 l/m 0,0 km/h SW 8,7 C 11,9 C 0,0 km/h
14.10.2013 06:00 11,5 C 84 % 1015,0 hPa 0,0 l/m 0,0 km/h NW 8,9 C 11,5 C 0,0 km/h
14.10.2013 07:00 11,2 C 84 % 1015,6 hPa 0,0 l/m 0,0 km/h N 8,6 C 11,2 C 0,0 km/h
14.10.2013 08:00 10,8 C 83 % 1015,7 hPa 0,5 l/m 0,0 km/h SO 8,0 C 10,8 C 0,0 km/h
14.10.2013 09:00 11,4 C 80 % 1016,1 hPa 0,0 l/m 0,0 km/h NO 8,1 C 11,4 C 0,0 km/h
14.10.2013 10:00 12,4 C 79 % 1016,2 hPa 0,0 l/m 0,0 km/h S 8,9 C 12,4 C 0,0 km/h
14.10.2013 11:00 12,9 C 82 % 1016,3 hPa 0,5 l/m 0,0 km/h S-SO 9,9 C 12,9 C 0,0 km/h
14.10.2013 12:00 15,8 C 83 % 1015,8 hPa 0,5 l/m 0,0 km/h NW 12,9 C 15,8 C 0,0 km/h
14.10.2013 13:00 17,0 C 78 % 1015,3 hPa 0,0 l/m 0,0 km/h NW 13,1 C 17,0 C 0,0 km/h
14.10.2013 14:00 15,6 C 80 % 1014,8 hPa 0,0 l/m 0,0 km/h S-SW 12,2 C 15,6 C 0,0 km/h
14.10.2013 15:00 18,3 C 75 % 1014,3 hPa 0,0 l/m 0,0 km/h W 13,8 C 18,3 C 0,0 km/h
14.10.2013 16:00 21,2 C 59 % 1013,6 hPa 0,0 l/m 0,0 km/h W-NW 12,9 C 21,2 C 0,0 km/h
14.10.2013 17:00 16,6 C 70 % 1013,4 hPa 0,0 l/m 0,0 km/h NW 11,1 C 16,6 C 0,0 km/h
14.10.2013 18:00 13,9 C 81 % 1013,6 hPa 0,0 l/m 0,0 km/h SO 10,7 C 13,9 C 0,0 km/h
14.10.2013 19:00 12,6 C 84 % 1013,9 hPa 0,5 l/m 1,9 km/h S-SW 10,0 C 12,6 C 1,1 km/h
14.10.2013 20:00 12,4 C 84 % 1013,8 hPa 0,0 l/m 21,4 km/h S-SO 9,8 C 6,0 C 11,9 km/h
14.10.2013 21:00 12,7 C 81 % 1013,5 hPa 0,0 l/m 0,0 km/h S-SO 9,5 C 12,7 C 0,0 km/h
14.10.2013 22:00 12,9 C 79 % 1013,5 hPa 0,0 l/m 6,5 km/h S-SW 9,3 C 12,9 C 3,6 km/h
14.10.2013 23:00 13,7 C 77 % 1013,1 hPa 0,0 l/m 0,0 km/h O-NO 9,7 C 13,7 C 0,0 km/h
15.10.2013 00:00 13,5 C 77 % 1012,4 hPa 0,0 l/m 0,0 km/h O-NO 9,5 C 13,5 C 0,0 km/h
15.10.2013 01:00 13,9 C 76 % 1012,3 hPa 0,0 l/m 1,3 km/h W 9,7 C 13,9 C 0,7 km/h
15.10.2013 02:00 14,9 C 73 % 1012,1 hPa 0,0 l/m 4,5 km/h SW 10,1 C 14,9 C 2,5 km/h
15.10.2013 03:00 14,6 C 72 % 1012,0 hPa 0,0 l/m 4,5 km/h W 9,6 C 14,6 C 2,5 km/h
15.10.2013 04:00 14,6 C 72 % 1011,7 hPa 0,0 l/m 10,4 km/h W-SW 9,6 C 12,5 C 5,8 km/h
15.10.2013 05:00 13,8 C 75 % 1011,4 hPa 0,0 l/m 11,7 km/h SW 9,4 C 11,0 C 6,5 km/h
15.10.2013 06:00 13,8 C 76 % 1011,1 hPa 0,0 l/m 8,4 km/h W-SW 9,6 C 12,6 C 4,7 km/h
15.10.2013 07:00 13,9 C 75 % 1011,2 hPa 0,0 l/m 15,6 km/h W 9,5 C 9,7 C 8,6 km/h
15.10.2013 08:00 13,6 C 77 % 1011,3 hPa 0,0 l/m 24,0 km/h W-SW 9,6 C 6,9 C 13,3 km/h
15.10.2013 09:00 14,3 C 75 % 1011,5 hPa 0,0 l/m 16,8 km/h W 9,9 C 9,8 C 9,4 km/h
15.10.2013 10:00 14,2 C 76 % 1011,5 hPa 0,0 l/m 13,0 km/h W-SW 10,0 C 11,0 C 7,2 km/h
15.10.2013 11:00 14,6 C 75 % 1011,1 hPa 0,0 l/m 17,5 km/h S-SW 10,2 C 9,9 C 9,7 km/h
15.10.2013 12:00 13,9 C 81 % 1010,5 hPa 0,0 l/m 0,0 km/h W 10,7 C 13,9 C 0,0 km/h
15.10.2013 13:00 13,6 C 79 % 1010,0 hPa 0,0 l/m 11,7 km/h S-SW 10,0 C 10,8 C 6,5 km/h
15.10.2013 14:00 13,9 C 81 % 1009,1 hPa 0,0 l/m 12,3 km/h S-SW 10,7 C 10,9 C 6,8 km/h
15.10.2013 15:00 14,9 C 78 % 1008,3 hPa 0,0 l/m 8,4 km/h SW 11,1 C 13,8 C 4,7 km/h
15.10.2013 16:00 14,8 C 78 % 1008,0 hPa 0,0 l/m 14,9 km/h S-SW 11,0 C 11,0 C 8,3 km/h
15.10.2013 17:00 14,4 C 79 % 1007,4 hPa 0,0 l/m 18,8 km/h W-SW 10,8 C 9,3 C 10,4 km/h
15.10.2013 18:00 13,2 C 84 % 1007,2 hPa 0,0 l/m 0,0 km/h W 10,6 C 13,2 C 0,0 km/h
15.10.2013 19:00 12,7 C 81 % 1007,4 hPa 2,1 l/m 1,3 km/h NW 9,5 C 12,7 C 0,7 km/h
15.10.2013 20:00 12,4 C 77 % 1007,9 hPa 1,6 l/m 10,4 km/h NO 8,5 C 10,0 C 5,8 km/h
15.10.2013 21:00 10,9 C 78 % 1008,0 hPa 10,4 l/m 0,0 km/h NO 7,2 C 10,9 C 0,0 km/h
15.10.2013 22:00 10,6 C 78 % 1008,5 hPa 3,6 l/m 0,0 km/h O 6,9 C 10,6 C 0,0 km/h
15.10.2013 23:00 9,8 C 78 % 1008,9 hPa 2,6 l/m 0,0 km/h O-NO 6,1 C 9,8 C 0,0 km/h
16.10.2013 00:00 9,2 C 77 % 1009,1 hPa 0,5 l/m 0,0 km/h O-NO 5,4 C 9,2 C 0,0 km/h
16.10.2013 01:00 8,3 C 79 % 1009,5 hPa 0,0 l/m 0,0 km/h O-SO 4,9 C 8,3 C 0,0 km/h
16.10.2013 02:00 6,9 C 78 % 1010,1 hPa 0,0 l/m 0,0 km/h SO 3,3 C 6,9 C 0,0 km/h
16.10.2013 03:00 6,4 C 78 % 1010,3 hPa 0,0 l/m 0,0 km/h O-SO 2,8 C 6,4 C 0,0 km/h
16.10.2013 04:00 6,7 C 75 % 1010,9 hPa 0,0 l/m 0,0 km/h O-NO 2,6 C 6,7 C 0,0 km/h
16.10.2013 05:00 7,2 C 73 % 1011,7 hPa 0,0 l/m 0,0 km/h O 2,7 C 7,2 C 0,0 km/h
16.10.2013 06:00 7,9 C 72 % 1012,2 hPa 0,0 l/m 0,0 km/h O 3,2 C 7,9 C 0,0 km/h
16.10.2013 07:00 8,0 C 71 % 1012,7 hPa 0,0 l/m 0,0 km/h O-SO 3,1 C 8,0 C 0,0 km/h
16.10.2013 08:00 8,1 C 70 % 1013,2 hPa 0,0 l/m 0,0 km/h O 3,0 C 8,1 C 0,0 km/h
16.10.2013 09:00 8,8 C 68 % 1014,1 hPa 0,0 l/m 0,0 km/h O 3,2 C 8,8 C 0,0 km/h
16.10.2013 10:00 10,7 C 66 % 1014,7 hPa 0,0 l/m 0,0 km/h S-SO 4,6 C 10,7 C 0,0 km/h
16.10.2013 11:00 13,6 C 83 % 1014,8 hPa 0,0 l/m 0,0 km/h S-SW 10,8 C 13,6 C 0,0 km/h
16.10.2013 12:00 17,5 C 65 % 1014,8 hPa 0,0 l/m 5,8 km/h W-SW 10,8 C 17,5 C 3,2 km/h
16.10.2013 13:00 16,8 C 60 % 1014,5 hPa 0,0 l/m 13,0 km/h W-SW 9,0 C 14,0 C 7,2 km/h
16.10.2013 14:00 17,6 C 58 % 1013,9 hPa 0,0 l/m 3,2 km/h W-SW 9,2 C 17,6 C 1,8 km/h
16.10.2013 15:00 18,8 C 51 % 1013,4 hPa 0,0 l/m 4,5 km/h W 8,4 C 18,8 C 2,5 km/h
16.10.2013 16:00 15,2 C 62 % 1013,5 hPa 0,0 l/m 0,0 km/h W 8,0 C 15,2 C 0,0 km/h
16.10.2013 17:00 13,6 C 69 % 1013,1 hPa 0,0 l/m 0,0 km/h O-NO 8,0 C 13,6 C 0,0 km/h
16.10.2013 18:00 12,1 C 77 % 1013,0 hPa 0,0 l/m 0,0 km/h O 8,2 C 12,1 C 0,0 km/h
16.10.2013 19:00 10,5 C 82 % 1013,2 hPa 0,0 l/m 0,0 km/h NO 7,6 C 10,5 C 0,0 km/h
16.10.2013 20:00 10,3 C 83 % 1013,6 hPa 0,0 l/m 0,0 km/h O-SO 7,5 C 10,3 C 0,0 km/h
16.10.2013 21:00 10,2 C 84 % 1012,7 hPa 0,0 l/m 0,0 km/h O-SO 7,6 C 10,2 C 0,0 km/h
16.10.2013 22:00 10,2 C 84 % 1012,7 hPa 0,0 l/m 0,0 km/h S-SO 7,6 C 10,2 C 0,0 km/h
16.10.2013 23:00 10,3 C 84 % 1012,3 hPa 0,0 l/m 0,0 km/h S-SO 7,7 C 10,3 C 0,0 km/h
17.10.2013 00:00 10,3 C 83 % 1012,7 hPa 0,5 l/m 0,0 km/h O-SO 7,5 C 10,3 C 0,0 km/h
17.10.2013 01:00 10,5 C 81 % 1012,6 hPa 1,6 l/m 0,0 km/h O-NO 7,4 C 10,5 C 0,0 km/h
17.10.2013 02:00 10,8 C 80 % 1013,6 hPa 0,0 l/m 0,0 km/h O-SO 7,5 C 10,8 C 0,0 km/h
17.10.2013 03:00 10,9 C 77 % 1014,8 hPa 0,0 l/m 0,0 km/h O-NO 7,0 C 10,9 C 0,0 km/h
17.10.2013 04:00 9,9 C 76 % 1015,7 hPa 0,0 l/m 0,0 km/h S-SO 5,9 C 9,9 C 0,0 km/h
17.10.2013 05:00 10,3 C 75 % 1016,2 hPa 0,0 l/m 0,0 km/h W-SW 6,1 C 10,3 C 0,0 km/h
17.10.2013 06:00 9,8 C 74 % 1016,6 hPa 0,0 l/m 0,0 km/h SW 5,4 C 9,8 C 0,0 km/h
17.10.2013 07:00 10,1 C 73 % 1016,7 hPa 0,0 l/m 0,0 km/h W-SW 5,5 C 10,1 C 0,0 km/h
17.10.2013 08:00 10,4 C 76 % 1017,2 hPa 0,0 l/m 1,9 km/h W-NW 6,4 C 10,4 C 1,1 km/h
17.10.2013 09:00 11,9 C 84 % 1017,9 hPa 0,0 l/m 3,9 km/h SW 9,3 C 11,9 C 2,2 km/h
17.10.2013 10:00 17,6 C 69 % 1018,0 hPa 0,0 l/m 23,3 km/h W 11,8 C 12,4 C 13,0 km/h
17.10.2013 11:00 18,4 C 63 % 1017,8 hPa 0,0 l/m 18,8 km/h W 11,2 C 14,4 C 10,4 km/h
17.10.2013 12:00 16,4 C 66 % 1017,8 hPa 0,0 l/m 10,4 km/h SW 10,0 C 14,5 C 5,8 km/h
17.10.2013 13:00 16,4 C 66 % 1017,5 hPa 0,0 l/m 20,1 km/h SW 10,0 C 11,5 C 11,2 km/h
17.10.2013 14:00 16,9 C 63 % 1017,2 hPa 0,0 l/m 20,1 km/h W 9,8 C 12,2 C 11,2 km/h
17.10.2013 15:00 18,8 C 58 % 1016,9 hPa 0,0 l/m 11,7 km/h W 10,4 C 16,7 C 6,5 km/h
17.10.2013 16:00 22,3 C 48 % 1016,6 hPa 0,0 l/m 4,5 km/h W-SW 10,8 C 22,3 C 2,5 km/h
17.10.2013 17:00 20,4 C 51 % 1016,4 hPa 0,0 l/m 2,6 km/h W-SW 9,9 C 20,4 C 1,4 km/h
17.10.2013 18:00 14,9 C 65 % 1016,3 hPa 0,0 l/m 0,0 km/h S-SW 8,4 C 14,9 C 0,0 km/h
17.10.2013 19:00 11,8 C 75 % 1016,7 hPa 0,0 l/m 0,0 km/h S-SO 7,5 C 11,8 C 0,0 km/h
17.10.2013 20:00 11,5 C 81 % 1017,4 hPa 0,0 l/m 0,0 km/h O-SO 8,4 C 11,5 C 0,0 km/h
17.10.2013 21:00 8,8 C 84 % 1017,1 hPa 0,0 l/m 0,0 km/h O 6,2 C 8,8 C 0,0 km/h
17.10.2013 22:00 7,5 C 84 % 1017,7 hPa 0,0 l/m 0,0 km/h O-SO 5,0 C 7,5 C 0,0 km/h
17.10.2013 23:00 7,4 C 83 % 1017,9 hPa 0,0 l/m 0,0 km/h SO 4,7 C 7,4 C 0,0 km/h
18.10.2013 00:00 7,8 C 81 % 1017,8 hPa 0,0 l/m 0,0 km/h SO 4,7 C 7,8 C 0,0 km/h
18.10.2013 01:00 8,1 C 80 % 1017,8 hPa 0,0 l/m 0,0 km/h S-SO 4,9 C 8,1 C 0,0 km/h
18.10.2013 02:00 6,8 C 80 % 1017,5 hPa 0,0 l/m 0,0 km/h S-SO 3,6 C 6,8 C 0,0 km/h
18.10.2013 03:00 5,9 C 81 % 1017,4 hPa 0,0 l/m 3,2 km/h S-SO 2,9 C 5,9 C 1,8 km/h
18.10.2013 04:00 6,3 C 78 % 1017,4 hPa 0,0 l/m 0,0 km/h SO 2,8 C 6,3 C 0,0 km/h
18.10.2013 05:00 7,6 C 76 % 1017,4 hPa 0,0 l/m 0,0 km/h S-SO 3,6 C 7,6 C 0,0 km/h
18.10.2013 06:00 6,6 C 77 % 1017,1 hPa 0,0 l/m 0,0 km/h S-SO 2,9 C 6,6 C 0,0 km/h
18.10.2013 07:00 6,2 C 77 % 1017,0 hPa 0,0 l/m 0,0 km/h SO 2,5 C 6,2 C 0,0 km/h
18.10.2013 08:00 6,1 C 76 % 1017,1 hPa 0,0 l/m 0,0 km/h S-SO 2,2 C 6,1 C 0,0 km/h
18.10.2013 09:00 8,5 C 71 % 1017,1 hPa 0,0 l/m 0,0 km/h S-SO 3,5 C 8,5 C 0,0 km/h
18.10.2013 10:00 14,9 C 84 % 1017,0 hPa 0,0 l/m 0,0 km/h N-NO 12,2 C 14,9 C 0,0 km/h
18.10.2013 11:00 18,9 C 66 % 1016,8 hPa 0,0 l/m 0,0 km/h W 12,4 C 18,9 C 0,0 km/h
18.10.2013 12:00 21,4 C 59 % 1016,4 hPa 0,0 l/m 0,0 km/h W-NW 13,0 C 21,4 C 0,0 km/h
18.10.2013 13:00 20,8 C 60 % 1015,5 hPa 0,0 l/m 0,0 km/h N 12,7 C 20,8 C 0,0 km/h
18.10.2013 14:00 21,1 C 59 % 1014,8 hPa 0,0 l/m 0,0 km/h W-NW 12,8 C 21,1 C 0,0 km/h
18.10.2013 15:00 20,8 C 63 % 1014,3 hPa 0,0 l/m 0,0 km/h S 13,5 C 20,8 C 0,0 km/h
18.10.2013 16:00 20,3 C 62 % 1013,6 hPa 0,0 l/m 0,0 km/h S-SW 12,8 C 20,3 C 0,0 km/h
18.10.2013 17:00 17,3 C 72 % 1013,8 hPa 0,0 l/m 0,0 km/h S 12,2 C 17,3 C 0,0 km/h
18.10.2013 18:00 13,5 C 78 % 1013,8 hPa 0,0 l/m 0,0 km/h O-SO 9,7 C 13,5 C 0,0 km/h
18.10.2013 19:00 11,3 C 83 % 1013,8 hPa 0,0 l/m 0,0 km/h O-SO 8,5 C 11,3 C 0,0 km/h
18.10.2013 20:00 9,9 C 84 % 1013,9 hPa 0,0 l/m 0,0 km/h O-SO 7,3 C 9,9 C 0,0 km/h
18.10.2013 21:00 8,3 C 84 % 1013,9 hPa 0,0 l/m 0,0 km/h O-SO 5,8 C 8,3 C 0,0 km/h
18.10.2013 22:00 7,9 C 82 % 1014,1 hPa 0,0 l/m 0,0 km/h O 5,0 C 7,9 C 0,0 km/h
18.10.2013 23:00 7,4 C 81 % 1014,1 hPa 0,0 l/m 0,0 km/h SO 4,4 C 7,4 C 0,0 km/h
19.10.2013 00:00 6,9 C 81 % 1014,0 hPa 0,0 l/m 0,0 km/h O 3,9 C 6,9 C 0,0 km/h
19.10.2013 01:00 6,5 C 80 % 1013,6 hPa 0,0 l/m 0,0 km/h SO 3,3 C 6,5 C 0,0 km/h
19.10.2013 02:00 6,1 C 80 % 1013,5 hPa 0,0 l/m 0,0 km/h NO 2,9 C 6,1 C 0,0 km/h
19.10.2013 03:00 6,1 C 79 % 1013,4 hPa 0,0 l/m 0,0 km/h O-NO 2,7 C 6,1 C 0,0 km/h
19.10.2013 04:00 5,9 C 78 % 1013,1 hPa 0,0 l/m 0,0 km/h SO 2,4 C 5,9 C 0,0 km/h
19.10.2013 05:00 5,8 C 76 % 1012,8 hPa 0,0 l/m 0,0 km/h NO 1,9 C 5,8 C 0,0 km/h
19.10.2013 06:00 5,9 C 74 % 1013,0 hPa 0,0 l/m 0,0 km/h O-SO 1,6 C 5,9 C 0,0 km/h
19.10.2013 07:00 6,1 C 73 % 1012,8 hPa 0,0 l/m 0,0 km/h SO 1,6 C 6,1 C 0,0 km/h
19.10.2013 08:00 5,5 C 73 % 1012,8 hPa 0,0 l/m 0,0 km/h O-SO 1,1 C 5,5 C 0,0 km/h
19.10.2013 09:00 7,5 C 69 % 1012,9 hPa 0,0 l/m 0,0 km/h O-NO 2,2 C 7,5 C 0,0 km/h
19.10.2013 10:00 16,8 C 81 % 1013,2 hPa 0,0 l/m 0,0 km/h SO 13,5 C 16,8 C 0,0 km/h
19.10.2013 11:00 22,6 C 63 % 1012,8 hPa 0,0 l/m 0,0 km/h SO 15,2 C 22,6 C 0,0 km/h
19.10.2013 12:00 26,7 C 55 % 1012,5 hPa 0,0 l/m 0,0 km/h W-SW 16,9 C 26,7 C 0,0 km/h
19.10.2013 13:00 26,6 C 50 % 1011,8 hPa 0,0 l/m 0,0 km/h W-SW 15,3 C 26,6 C 0,0 km/h
19.10.2013 14:00 26,4 C 50 % 1011,3 hPa 0,0 l/m 5,2 km/h W 15,1 C 26,4 C 2,9 km/h
19.10.2013 15:00 27,8 C 47 % 1010,9 hPa 0,0 l/m 0,0 km/h W-SW 15,4 C 27,8 C 0,0 km/h
19.10.2013 16:00 29,3 C 44 % 1010,8 hPa 0,0 l/m 0,0 km/h W-SW 15,8 C 29,3 C 0,0 km/h
19.10.2013 17:00 23,5 C 58 % 1011,0 hPa 0,0 l/m 0,0 km/h SO 14,7 C 23,5 C 0,0 km/h
19.10.2013 18:00 17,9 C 76 % 1011,9 hPa 0,0 l/m 0,0 km/h NO 13,6 C 17,9 C 0,0 km/h
19.10.2013 19:00 16,0 C 81 % 1012,5 hPa 0,0 l/m 0,0 km/h S-SW 12,7 C 16,0 C 0,0 km/h
19.10.2013 20:00 18,4 C 77 % 1012,9 hPa 0,0 l/m 1,9 km/h O-NO 14,3 C 18,4 C 1,1 km/h
19.10.2013 21:00 17,9 C 75 % 1013,2 hPa 0,0 l/m 1,3 km/h O-NO 13,4 C 17,9 C 0,7 km/h
19.10.2013 22:00 15,4 C 83 % 1013,7 hPa 0,0 l/m 0,0 km/h O-SO 12,5 C 15,4 C 0,0 km/h
19.10.2013 23:00 15,3 C 83 % 1014,1 hPa 0,0 l/m 0,0 km/h SO 12,4 C 15,3 C 0,0 km/h
20.10.2013 00:00 15,8 C 83 % 1014,5 hPa 0,0 l/m 0,0 km/h SO 12,9 C 15,8 C 0,0 km/h
20.10.2013 01:00 14,9 C 83 % 1014,3 hPa 0,0 l/m 3,2 km/h O-SO 12,0 C 14,9 C 1,8 km/h
20.10.2013 02:00 14,2 C 81 % 1014,3 hPa 0,0 l/m 0,0 km/h SO 11,0 C 14,2 C 0,0 km/h
20.10.2013 03:00 14,2 C 79 % 1014,0 hPa 0,0 l/m 0,0 km/h NO 10,6 C 14,2 C 0,0 km/h
20.10.2013 04:00 14,7 C 83 % 1014,0 hPa 0,0 l/m 0,0 km/h O-NO 11,8 C 14,7 C 0,0 km/h
20.10.2013 05:00 14,7 C 83 % 1013,8 hPa 0,0 l/m 0,0 km/h W 11,8 C 14,7 C 0,0 km/h
20.10.2013 06:00 14,3 C 83 % 1013,8 hPa 0,0 l/m 0,0 km/h O 11,5 C 14,3 C 0,0 km/h
20.10.2013 07:00 14,2 C 82 % 1013,8 hPa 0,0 l/m 0,0 km/h S-SO 11,2 C 14,2 C 0,0 km/h
20.10.2013 08:00 14,2 C 79 % 1014,3 hPa 0,0 l/m 0,0 km/h O-SO 10,6 C 14,2 C 0,0 km/h
20.10.2013 09:00 14,9 C 79 % 1014,2 hPa 0,0 l/m 0,0 km/h O 11,3 C 14,9 C 0,0 km/h
20.10.2013 10:00 14,9 C 80 % 1015,2 hPa 1,6 l/m 0,0 km/h W-SW 11,5 C 14,9 C 0,0 km/h
20.10.2013 11:00 14,9 C 77 % 1016,1 hPa 1,6 l/m 0,0 km/h S-SW 10,9 C 14,9 C 0,0 km/h
20.10.2013 12:00 15,2 C 74 % 1015,8 hPa 1,6 l/m 0,0 km/h S 10,6 C 15,2 C 0,0 km/h
20.10.2013 13:00 14,9 C 76 % 1015,6 hPa 1,6 l/m 0,0 km/h S 10,7 C 14,9 C 0,0 km/h
20.10.2013 14:00 14,9 C 76 % 1015,4 hPa 0,5 l/m 11,7 km/h S-SO 10,7 C 12,3 C 6,5 km/h
20.10.2013 15:00 15,0 C 78 % 1014,9 hPa 0,5 l/m 0,0 km/h SO 11,2 C 15,0 C 0,0 km/h
20.10.2013 16:00 15,5 C 79 % 1014,5 hPa 0,0 l/m 0,0 km/h SO 11,9 C 15,5 C 0,0 km/h
20.10.2013 17:00 15,2 C 80 % 1014,5 hPa 0,0 l/m 0,0 km/h NO 11,8 C 15,2 C 0,0 km/h
20.10.2013 18:00 15,1 C 82 % 1014,7 hPa 0,0 l/m 0,0 km/h S-SO 12,0 C 15,1 C 0,0 km/h
20.10.2013 19:00 13,5 C 78 % 1014,7 hPa 0,0 l/m 0,0 km/h S-SO 9,7 C 13,5 C 0,0 km/h
20.10.2013 20:00 12,6 C 75 % 1015,0 hPa 0,0 l/m 0,0 km/h SO 8,3 C 12,6 C 0,0 km/h
20.10.2013 21:00 12,4 C 72 % 1015,5 hPa 0,0 l/m 0,0 km/h O-SO 7,5 C 12,4 C 0,0 km/h
20.10.2013 22:00 11,5 C 71 % 1015,8 hPa 0,0 l/m 0,0 km/h S-SO 6,4 C 11,5 C 0,0 km/h
20.10.2013 23:00 11,2 C 70 % 1016,3 hPa 0,0 l/m 0,6 km/h SO 5,9 C 11,2 C 0,4 km/h
Min-Datum _ 19.10.13 19.10.13 15.10.13 - 14.10.13 - 19.10.13 19.10.13 14.10.13
_ Min-Zeit 08:19 16:19 18:19 - 00:19 - 08:19 08:19 00:19
Minimum _ 5,5 C 44 % 1007,2 hPa - 0,0 km/h - 1,1 C 5,5 C 0,0 km/h
Max-Datum _ 19.10.13 14.10.13 17.10.13 15.10.13 15.10.13 - 19.10.13 19.10.13 15.10.13
_ Max-Zeit 16:19 06:19 10:19 21:19 08:19 - 12:19 16:19 08:19
Maximum _ 29,3 C 84 % 1018,0 hPa 10,4 l/m 24,0 km/h
W-SW
- 16,9 C 29,3 C 13,3 km/h
W-SW
Durchschnitt _ 13,1 C 75 % 1013,9 hPa #34,2 l/m 2,4 km/h S-SO 8,6 C 12,6 C 1,3 km/h
www.sexauwetter.de